sensor_id;sensor_type;location;lat;lon;timestamp;P1;durP1;ratioP1;P2;durP2;ratioP2
49910;SDS011;35803;53.096;5.844;2023-04-16T00:01:54;37.38;;;11.48;;
49910;SDS011;35803;53.096;5.844;2023-04-16T00:04:20;34.00;;;10.68;;
49910;SDS011;35803;53.096;5.844;2023-04-16T00:06:45;38.05;;;11.07;;
49910;SDS011;35803;53.096;5.844;2023-04-16T00:09:11;34.67;;;10.50;;
49910;SDS011;35803;53.096;5.844;2023-04-16T00:11:36;33.83;;;11.13;;
49910;SDS011;35803;53.096;5.844;2023-04-16T00:14:02;28.02;;;10.18;;
49910;SDS011;35803;53.096;5.844;2023-04-16T00:16:27;30.95;;;10.60;;
49910;SDS011;35803;53.096;5.844;2023-04-16T00:18:53;33.38;;;10.85;;
49910;SDS011;35803;53.096;5.844;2023-04-16T00:21:18;36.15;;;10.55;;
49910;SDS011;35803;53.096;5.844;2023-04-16T00:23:44;33.50;;;10.38;;
49910;SDS011;35803;53.096;5.844;2023-04-16T00:26:10;28.77;;;10.52;;
49910;SDS011;35803;53.096;5.844;2023-04-16T00:28:35;34.60;;;10.90;;
49910;SDS011;35803;53.096;5.844;2023-04-16T00:31:01;34.83;;;11.07;;
49910;SDS011;35803;53.096;5.844;2023-04-16T00:33:26;40.92;;;11.75;;
49910;SDS011;35803;53.096;5.844;2023-04-16T00:35:54;34.33;;;10.73;;
49910;SDS011;35803;53.096;5.844;2023-04-16T00:38:19;29.33;;;10.45;;
49910;SDS011;35803;53.096;5.844;2023-04-16T00:40:45;32.72;;;10.00;;
49910;SDS011;35803;53.096;5.844;2023-04-16T00:43:10;31.27;;;9.95;;
49910;SDS011;35803;53.096;5.844;2023-04-16T00:45:36;28.02;;;9.13;;
49910;SDS011;35803;53.096;5.844;2023-04-16T00:48:04;31.23;;;10.15;;
49910;SDS011;35803;53.096;5.844;2023-04-16T00:50:30;31.23;;;10.70;;
49910;SDS011;35803;53.096;5.844;2023-04-16T00:52:55;27.67;;;10.13;;
49910;SDS011;35803;53.096;5.844;2023-04-16T00:55:22;35.85;;;10.77;;
49910;SDS011;35803;53.096;5.844;2023-04-16T00:57:47;34.15;;;11.73;;
49910;SDS011;35803;53.096;5.844;2023-04-16T01:00:13;29.85;;;10.55;;
49910;SDS011;35803;53.096;5.844;2023-04-16T01:02:38;30.00;;;10.25;;
49910;SDS011;35803;53.096;5.844;2023-04-16T01:05:04;29.88;;;10.98;;
49910;SDS011;35803;53.096;5.844;2023-04-16T01:07:30;29.60;;;10.95;;
49910;SDS011;35803;53.096;5.844;2023-04-16T01:10:02;30.83;;;10.15;;
49910;SDS011;35803;53.096;5.844;2023-04-16T01:12:28;25.48;;;7.90;;
49910;SDS011;35803;53.096;5.844;2023-04-16T01:14:53;29.20;;;10.35;;
49910;SDS011;35803;53.096;5.844;2023-04-16T01:17:19;24.10;;;10.63;;
49910;SDS011;35803;53.096;5.844;2023-04-16T01:19:44;30.17;;;10.80;;
49910;SDS011;35803;53.096;5.844;2023-04-16T01:22:10;30.85;;;12.05;;
49910;SDS011;35803;53.096;5.844;2023-04-16T01:24:36;32.75;;;11.95;;
49910;SDS011;35803;53.096;5.844;2023-04-16T01:27:02;31.95;;;12.43;;
49910;SDS011;35803;53.096;5.844;2023-04-16T01:29:27;33.60;;;12.40;;
49910;SDS011;35803;53.096;5.844;2023-04-16T01:31:53;32.47;;;12.63;;
49910;SDS011;35803;53.096;5.844;2023-04-16T01:34:18;32.65;;;13.50;;
49910;SDS011;35803;53.096;5.844;2023-04-16T01:36:44;34.83;;;13.23;;
49910;SDS011;35803;53.096;5.844;2023-04-16T01:39:10;32.92;;;12.15;;
49910;SDS011;35803;53.096;5.844;2023-04-16T01:41:35;33.63;;;12.95;;
49910;SDS011;35803;53.096;5.844;2023-04-16T01:44:01;34.55;;;12.50;;
49910;SDS011;35803;53.096;5.844;2023-04-16T01:46:27;32.28;;;12.30;;
49910;SDS011;35803;53.096;5.844;2023-04-16T01:48:53;31.05;;;12.05;;
49910;SDS011;35803;53.096;5.844;2023-04-16T01:51:19;30.42;;;11.88;;
49910;SDS011;35803;53.096;5.844;2023-04-16T01:53:45;39.25;;;12.88;;
49910;SDS011;35803;53.096;5.844;2023-04-16T01:56:11;32.58;;;13.00;;
49910;SDS011;35803;53.096;5.844;2023-04-16T01:58:36;38.83;;;13.35;;
49910;SDS011;35803;53.096;5.844;2023-04-16T02:01:02;39.90;;;12.98;;
49910;SDS011;35803;53.096;5.844;2023-04-16T02:03:29;36.00;;;13.35;;
49910;SDS011;35803;53.096;5.844;2023-04-16T02:05:55;42.05;;;14.10;;
49910;SDS011;35803;53.096;5.844;2023-04-16T02:08:21;42.40;;;14.52;;
49910;SDS011;35803;53.096;5.844;2023-04-16T02:10:48;41.13;;;14.82;;
49910;SDS011;35803;53.096;5.844;2023-04-16T02:13:14;41.42;;;13.85;;
49910;SDS011;35803;53.096;5.844;2023-04-16T02:15:43;42.05;;;13.80;;
49910;SDS011;35803;53.096;5.844;2023-04-16T02:18:13;34.53;;;12.95;;
49910;SDS011;35803;53.096;5.844;2023-04-16T02:20:42;33.80;;;13.40;;
49910;SDS011;35803;53.096;5.844;2023-04-16T02:23:08;38.53;;;13.35;;
49910;SDS011;35803;53.096;5.844;2023-04-16T02:25:38;34.63;;;12.75;;
49910;SDS011;35803;53.096;5.844;2023-04-16T02:28:06;38.38;;;12.60;;
49910;SDS011;35803;53.096;5.844;2023-04-16T02:30:33;34.67;;;13.38;;
49910;SDS011;35803;53.096;5.844;2023-04-16T02:33:00;38.22;;;12.85;;
49910;SDS011;35803;53.096;5.844;2023-04-16T02:35:27;39.60;;;13.32;;
49910;SDS011;35803;53.096;5.844;2023-04-16T02:37:53;41.53;;;13.10;;
49910;SDS011;35803;53.096;5.844;2023-04-16T02:40:19;45.25;;;14.80;;
49910;SDS011;35803;53.096;5.844;2023-04-16T02:42:44;42.35;;;13.07;;
49910;SDS011;35803;53.096;5.844;2023-04-16T02:45:10;39.35;;;13.55;;
49910;SDS011;35803;53.096;5.844;2023-04-16T02:47:35;47.03;;;14.35;;
49910;SDS011;35803;53.096;5.844;2023-04-16T02:50:03;41.35;;;13.85;;
49910;SDS011;35803;53.096;5.844;2023-04-16T02:52:30;43.42;;;14.90;;
49910;SDS011;35803;53.096;5.844;2023-04-16T02:54:57;40.33;;;14.73;;
49910;SDS011;35803;53.096;5.844;2023-04-16T02:57:22;43.30;;;14.13;;
49910;SDS011;35803;53.096;5.844;2023-04-16T02:59:48;44.53;;;14.35;;
49910;SDS011;35803;53.096;5.844;2023-04-16T03:02:13;42.85;;;13.82;;
49910;SDS011;35803;53.096;5.844;2023-04-16T03:04:38;38.40;;;14.80;;
49910;SDS011;35803;53.096;5.844;2023-04-16T03:07:04;41.35;;;14.32;;
49910;SDS011;35803;53.096;5.844;2023-04-16T03:09:30;43.83;;;14.98;;
49910;SDS011;35803;53.096;5.844;2023-04-16T03:11:56;41.22;;;14.77;;
49910;SDS011;35803;53.096;5.844;2023-04-16T03:14:21;43.63;;;14.20;;
49910;SDS011;35803;53.096;5.844;2023-04-16T03:16:47;39.40;;;14.40;;
49910;SDS011;35803;53.096;5.844;2023-04-16T03:19:12;43.22;;;13.48;;
49910;SDS011;35803;53.096;5.844;2023-04-16T03:21:38;40.60;;;13.80;;
49910;SDS011;35803;53.096;5.844;2023-04-16T03:24:03;41.95;;;14.98;;
49910;SDS011;35803;53.096;5.844;2023-04-16T03:26:29;44.72;;;14.40;;
49910;SDS011;35803;53.096;5.844;2023-04-16T03:28:55;42.45;;;15.70;;
49910;SDS011;35803;53.096;5.844;2023-04-16T03:31:22;42.38;;;15.80;;
49910;SDS011;35803;53.096;5.844;2023-04-16T03:33:48;37.35;;;14.80;;
49910;SDS011;35803;53.096;5.844;2023-04-16T03:36:14;38.95;;;14.60;;
49910;SDS011;35803;53.096;5.844;2023-04-16T03:38:39;45.78;;;16.27;;
49910;SDS011;35803;53.096;5.844;2023-04-16T03:41:05;47.20;;;15.25;;
49910;SDS011;35803;53.096;5.844;2023-04-16T03:43:30;41.05;;;15.77;;
49910;SDS011;35803;53.096;5.844;2023-04-16T03:45:56;43.85;;;16.13;;
49910;SDS011;35803;53.096;5.844;2023-04-16T03:48:21;39.67;;;14.52;;
49910;SDS011;35803;53.096;5.844;2023-04-16T03:50:47;41.63;;;14.75;;
49910;SDS011;35803;53.096;5.844;2023-04-16T03:53:13;42.33;;;16.38;;
49910;SDS011;35803;53.096;5.844;2023-04-16T03:55:39;50.60;;;16.00;;
49910;SDS011;35803;53.096;5.844;2023-04-16T03:58:05;46.90;;;16.27;;
49910;SDS011;35803;53.096;5.844;2023-04-16T04:00:30;51.85;;;14.98;;
49910;SDS011;35803;53.096;5.844;2023-04-16T04:02:56;49.00;;;15.18;;
49910;SDS011;35803;53.096;5.844;2023-04-16T04:05:21;49.45;;;15.55;;
49910;SDS011;35803;53.096;5.844;2023-04-16T04:07:47;45.10;;;15.77;;
49910;SDS011;35803;53.096;5.844;2023-04-16T04:10:13;48.20;;;16.80;;
49910;SDS011;35803;53.096;5.844;2023-04-16T04:12:38;46.92;;;16.63;;
49910;SDS011;35803;53.096;5.844;2023-04-16T04:15:04;53.75;;;15.65;;
49910;SDS011;35803;53.096;5.844;2023-04-16T04:17:30;43.92;;;15.02;;
49910;SDS011;35803;53.096;5.844;2023-04-16T04:19:56;44.67;;;15.93;;
49910;SDS011;35803;53.096;5.844;2023-04-16T04:22:21;52.20;;;16.58;;
49910;SDS011;35803;53.096;5.844;2023-04-16T04:24:47;46.75;;;15.15;;
49910;SDS011;35803;53.096;5.844;2023-04-16T04:27:12;41.55;;;15.10;;
49910;SDS011;35803;53.096;5.844;2023-04-16T04:29:38;46.05;;;14.90;;
49910;SDS011;35803;53.096;5.844;2023-04-16T04:32:03;40.95;;;14.88;;
49910;SDS011;35803;53.096;5.844;2023-04-16T04:34:29;42.70;;;15.00;;
49910;SDS011;35803;53.096;5.844;2023-04-16T04:36:55;45.15;;;14.77;;
49910;SDS011;35803;53.096;5.844;2023-04-16T04:39:20;44.08;;;15.00;;
49910;SDS011;35803;53.096;5.844;2023-04-16T04:41:46;39.28;;;13.90;;
49910;SDS011;35803;53.096;5.844;2023-04-16T04:44:12;40.75;;;14.52;;
49910;SDS011;35803;53.096;5.844;2023-04-16T04:46:38;47.03;;;14.82;;
49910;SDS011;35803;53.096;5.844;2023-04-16T04:49:04;49.25;;;15.30;;
49910;SDS011;35803;53.096;5.844;2023-04-16T04:51:30;39.40;;;14.73;;
49910;SDS011;35803;53.096;5.844;2023-04-16T04:53:56;42.92;;;15.20;;
49910;SDS011;35803;53.096;5.844;2023-04-16T04:56:22;47.25;;;13.65;;
49910;SDS011;35803;53.096;5.844;2023-04-16T04:58:48;43.78;;;13.88;;
49910;SDS011;35803;53.096;5.844;2023-04-16T05:01:14;40.63;;;12.88;;
49910;SDS011;35803;53.096;5.844;2023-04-16T05:03:40;41.58;;;14.05;;
49910;SDS011;35803;53.096;5.844;2023-04-16T05:06:06;34.60;;;13.77;;
49910;SDS011;35803;53.096;5.844;2023-04-16T05:08:31;44.38;;;14.00;;
49910;SDS011;35803;53.096;5.844;2023-04-16T05:11:04;35.95;;;13.85;;
49910;SDS011;35803;53.096;5.844;2023-04-16T05:13:30;34.38;;;12.98;;
49910;SDS011;35803;53.096;5.844;2023-04-16T05:15:56;29.67;;;11.40;;
49910;SDS011;35803;53.096;5.844;2023-04-16T05:18:21;43.78;;;12.85;;
49910;SDS011;35803;53.096;5.844;2023-04-16T05:20:47;36.88;;;11.70;;
49910;SDS011;35803;53.096;5.844;2023-04-16T05:23:12;34.80;;;11.50;;
49910;SDS011;35803;53.096;5.844;2023-04-16T05:25:39;35.20;;;11.38;;
49910;SDS011;35803;53.096;5.844;2023-04-16T05:28:05;31.27;;;11.40;;
49910;SDS011;35803;53.096;5.844;2023-04-16T05:30:31;28.98;;;10.38;;
49910;SDS011;35803;53.096;5.844;2023-04-16T05:32:56;36.38;;;11.27;;
49910;SDS011;35803;53.096;5.844;2023-04-16T05:35:22;35.92;;;11.32;;
49910;SDS011;35803;53.096;5.844;2023-04-16T05:37:47;27.40;;;10.70;;
49910;SDS011;35803;53.096;5.844;2023-04-16T05:40:13;31.08;;;10.63;;
49910;SDS011;35803;53.096;5.844;2023-04-16T05:42:38;34.47;;;11.65;;
49910;SDS011;35803;53.096;5.844;2023-04-16T05:45:04;33.40;;;11.48;;
49910;SDS011;35803;53.096;5.844;2023-04-16T05:47:30;30.85;;;11.20;;
49910;SDS011;35803;53.096;5.844;2023-04-16T05:49:56;36.17;;;11.50;;
49910;SDS011;35803;53.096;5.844;2023-04-16T05:52:21;32.58;;;11.18;;
49910;SDS011;35803;53.096;5.844;2023-04-16T05:54:47;38.40;;;10.65;;
49910;SDS011;35803;53.096;5.844;2023-04-16T05:57:13;29.83;;;10.07;;
49910;SDS011;35803;53.096;5.844;2023-04-16T05:59:38;35.80;;;11.45;;
49910;SDS011;35803;53.096;5.844;2023-04-16T06:02:04;35.00;;;12.18;;
49910;SDS011;35803;53.096;5.844;2023-04-16T06:04:31;34.00;;;12.43;;
49910;SDS011;35803;53.096;5.844;2023-04-16T06:06:56;40.47;;;14.10;;
49910;SDS011;35803;53.096;5.844;2023-04-16T06:09:21;38.45;;;13.90;;
49910;SDS011;35803;53.096;5.844;2023-04-16T06:11:47;38.70;;;13.88;;
49910;SDS011;35803;53.096;5.844;2023-04-16T06:14:13;34.08;;;13.50;;
49910;SDS011;35803;53.096;5.844;2023-04-16T06:16:38;34.38;;;14.00;;
49910;SDS011;35803;53.096;5.844;2023-04-16T06:19:04;32.28;;;12.82;;
49910;SDS011;35803;53.096;5.844;2023-04-16T06:21:29;27.67;;;12.25;;
49910;SDS011;35803;53.096;5.844;2023-04-16T06:23:55;34.40;;;12.75;;
49910;SDS011;35803;53.096;5.844;2023-04-16T06:26:21;35.08;;;12.90;;
49910;SDS011;35803;53.096;5.844;2023-04-16T06:28:47;33.72;;;12.07;;
49910;SDS011;35803;53.096;5.844;2023-04-16T06:31:12;37.13;;;10.95;;
49910;SDS011;35803;53.096;5.844;2023-04-16T06:33:38;27.23;;;10.85;;
49910;SDS011;35803;53.096;5.844;2023-04-16T06:36:03;37.08;;;12.02;;
49910;SDS011;35803;53.096;5.844;2023-04-16T06:38:29;37.33;;;11.88;;
49910;SDS011;35803;53.096;5.844;2023-04-16T06:40:55;29.33;;;11.15;;
49910;SDS011;35803;53.096;5.844;2023-04-16T06:43:20;27.23;;;11.18;;
49910;SDS011;35803;53.096;5.844;2023-04-16T06:45:56;26.95;;;10.30;;
49910;SDS011;35803;53.096;5.844;2023-04-16T06:48:21;32.20;;;11.27;;
49910;SDS011;35803;53.096;5.844;2023-04-16T06:50:46;30.85;;;11.60;;
49910;SDS011;35803;53.096;5.844;2023-04-16T06:53:12;35.78;;;12.77;;
49910;SDS011;35803;53.096;5.844;2023-04-16T06:55:37;34.75;;;11.57;;
49910;SDS011;35803;53.096;5.844;2023-04-16T06:58:03;33.72;;;11.75;;
49910;SDS011;35803;53.096;5.844;2023-04-16T07:00:28;30.80;;;10.50;;
49910;SDS011;35803;53.096;5.844;2023-04-16T07:02:54;33.40;;;11.23;;
49910;SDS011;35803;53.096;5.844;2023-04-16T07:05:19;29.38;;;11.98;;
49910;SDS011;35803;53.096;5.844;2023-04-16T07:07:45;33.58;;;12.73;;
49910;SDS011;35803;53.096;5.844;2023-04-16T07:10:10;33.47;;;11.85;;
49910;SDS011;35803;53.096;5.844;2023-04-16T07:12:36;33.63;;;11.68;;
49910;SDS011;35803;53.096;5.844;2023-04-16T07:15:01;29.92;;;11.88;;
49910;SDS011;35803;53.096;5.844;2023-04-16T07:17:27;30.08;;;11.52;;
49910;SDS011;35803;53.096;5.844;2023-04-16T07:19:53;38.28;;;13.38;;
49910;SDS011;35803;53.096;5.844;2023-04-16T07:22:19;36.55;;;12.18;;
49910;SDS011;35803;53.096;5.844;2023-04-16T07:24:44;34.47;;;12.15;;
49910;SDS011;35803;53.096;5.844;2023-04-16T07:27:10;30.58;;;12.15;;
49910;SDS011;35803;53.096;5.844;2023-04-16T07:29:35;31.50;;;10.90;;
49910;SDS011;35803;53.096;5.844;2023-04-16T07:32:01;25.40;;;10.18;;
49910;SDS011;35803;53.096;5.844;2023-04-16T07:34:26;26.23;;;9.93;;
49910;SDS011;35803;53.096;5.844;2023-04-16T07:36:52;28.63;;;10.50;;
49910;SDS011;35803;53.096;5.844;2023-04-16T07:39:17;30.30;;;11.43;;
49910;SDS011;35803;53.096;5.844;2023-04-16T07:41:43;24.58;;;9.73;;
49910;SDS011;35803;53.096;5.844;2023-04-16T07:44:08;23.95;;;9.77;;
49910;SDS011;35803;53.096;5.844;2023-04-16T07:46:34;29.90;;;10.57;;
49910;SDS011;35803;53.096;5.844;2023-04-16T07:48:59;25.77;;;10.00;;
49910;SDS011;35803;53.096;5.844;2023-04-16T07:51:25;26.98;;;10.63;;
49910;SDS011;35803;53.096;5.844;2023-04-16T07:53:51;22.40;;;9.63;;
49910;SDS011;35803;53.096;5.844;2023-04-16T07:56:16;25.20;;;9.93;;
49910;SDS011;35803;53.096;5.844;2023-04-16T07:58:42;25.75;;;9.55;;
49910;SDS011;35803;53.096;5.844;2023-04-16T08:01:07;25.73;;;10.18;;
49910;SDS011;35803;53.096;5.844;2023-04-16T08:03:33;25.30;;;9.90;;
49910;SDS011;35803;53.096;5.844;2023-04-16T08:05:59;23.35;;;9.55;;
49910;SDS011;35803;53.096;5.844;2023-04-16T08:08:24;31.10;;;10.80;;
49910;SDS011;35803;53.096;5.844;2023-04-16T08:10:50;25.17;;;10.13;;
49910;SDS011;35803;53.096;5.844;2023-04-16T08:13:21;24.17;;;9.38;;
49910;SDS011;35803;53.096;5.844;2023-04-16T08:15:47;32.90;;;10.63;;
49910;SDS011;35803;53.096;5.844;2023-04-16T08:18:13;21.08;;;10.50;;
49910;SDS011;35803;53.096;5.844;2023-04-16T08:20:40;27.48;;;10.48;;
49910;SDS011;35803;53.096;5.844;2023-04-16T08:23:07;21.52;;;9.13;;
49910;SDS011;35803;53.096;5.844;2023-04-16T08:25:32;32.15;;;10.23;;
49910;SDS011;35803;53.096;5.844;2023-04-16T08:27:58;27.67;;;9.90;;
49910;SDS011;35803;53.096;5.844;2023-04-16T08:30:23;24.10;;;10.43;;
49910;SDS011;35803;53.096;5.844;2023-04-16T08:32:49;24.63;;;9.60;;
49910;SDS011;35803;53.096;5.844;2023-04-16T08:35:15;29.20;;;9.98;;
49910;SDS011;35803;53.096;5.844;2023-04-16T08:37:40;23.08;;;9.40;;
49910;SDS011;35803;53.096;5.844;2023-04-16T08:40:06;27.02;;;9.93;;
49910;SDS011;35803;53.096;5.844;2023-04-16T08:42:54;22.88;;;10.88;;
49910;SDS011;35803;53.096;5.844;2023-04-16T08:45:23;27.65;;;10.77;;
49910;SDS011;35803;53.096;5.844;2023-04-16T08:47:51;23.77;;;10.45;;
49910;SDS011;35803;53.096;5.844;2023-04-16T08:50:18;25.40;;;10.40;;
49910;SDS011;35803;53.096;5.844;2023-04-16T08:53:09;21.35;;;9.75;;
49910;SDS011;35803;53.096;5.844;2023-04-16T08:55:36;23.20;;;9.55;;
49910;SDS011;35803;53.096;5.844;2023-04-16T08:58:06;21.83;;;9.15;;
49910;SDS011;35803;53.096;5.844;2023-04-16T09:00:33;24.05;;;9.85;;
49910;SDS011;35803;53.096;5.844;2023-04-16T09:02:59;25.83;;;10.02;;
49910;SDS011;35803;53.096;5.844;2023-04-16T09:05:25;18.58;;;9.77;;
49910;SDS011;35803;53.096;5.844;2023-04-16T09:07:51;21.40;;;9.13;;
49910;SDS011;35803;53.096;5.844;2023-04-16T09:10:18;23.30;;;10.70;;
49910;SDS011;35803;53.096;5.844;2023-04-16T09:12:44;25.23;;;10.05;;
49910;SDS011;35803;53.096;5.844;2023-04-16T09:15:10;26.30;;;9.82;;
49910;SDS011;35803;53.096;5.844;2023-04-16T09:17:37;23.70;;;9.77;;
49910;SDS011;35803;53.096;5.844;2023-04-16T09:20:06;26.73;;;10.57;;
49910;SDS011;35803;53.096;5.844;2023-04-16T09:22:33;23.67;;;10.00;;
49910;SDS011;35803;53.096;5.844;2023-04-16T09:24:59;32.17;;;11.00;;
49910;SDS011;35803;53.096;5.844;2023-04-16T09:27:25;26.88;;;11.07;;
49910;SDS011;35803;53.096;5.844;2023-04-16T09:29:51;25.95;;;10.07;;
49910;SDS011;35803;53.096;5.844;2023-04-16T09:32:16;27.05;;;10.32;;
49910;SDS011;35803;53.096;5.844;2023-04-16T09:34:58;16.75;;;8.52;;
49910;SDS011;35803;53.096;5.844;2023-04-16T09:37:28;19.55;;;7.75;;
49910;SDS011;35803;53.096;5.844;2023-04-16T09:42:28;23.15;;;9.60;;
49910;SDS011;35803;53.096;5.844;2023-04-16T09:44:57;25.25;;;9.98;;
49910;SDS011;35803;53.096;5.844;2023-04-16T09:47:37;23.65;;;9.98;;
49910;SDS011;35803;53.096;5.844;2023-04-16T09:50:04;23.98;;;10.73;;
49910;SDS011;35803;53.096;5.844;2023-04-16T09:52:30;24.38;;;9.68;;
49910;SDS011;35803;53.096;5.844;2023-04-16T09:54:55;31.05;;;10.40;;
49910;SDS011;35803;53.096;5.844;2023-04-16T09:57:22;24.75;;;10.10;;
49910;SDS011;35803;53.096;5.844;2023-04-16T09:59:52;20.75;;;8.73;;
49910;SDS011;35803;53.096;5.844;2023-04-16T10:02:18;20.38;;;9.57;;
49910;SDS011;35803;53.096;5.844;2023-04-16T10:04:47;20.23;;;9.90;;
49910;SDS011;35803;53.096;5.844;2023-04-16T10:07:14;21.08;;;9.55;;
49910;SDS011;35803;53.096;5.844;2023-04-16T10:09:40;19.77;;;8.75;;
49910;SDS011;35803;53.096;5.844;2023-04-16T10:12:06;24.95;;;9.93;;
49910;SDS011;35803;53.096;5.844;2023-04-16T10:14:32;22.45;;;9.88;;
49910;SDS011;35803;53.096;5.844;2023-04-16T10:16:58;19.10;;;9.20;;
49910;SDS011;35803;53.096;5.844;2023-04-16T10:19:24;22.77;;;10.15;;
49910;SDS011;35803;53.096;5.844;2023-04-16T10:21:51;25.88;;;10.02;;
49910;SDS011;35803;53.096;5.844;2023-04-16T10:24:17;23.35;;;9.93;;
49910;SDS011;35803;53.096;5.844;2023-04-16T10:26:43;17.60;;;9.48;;
49910;SDS011;35803;53.096;5.844;2023-04-16T10:29:10;22.65;;;9.07;;
49910;SDS011;35803;53.096;5.844;2023-04-16T10:31:36;23.63;;;10.00;;
49910;SDS011;35803;53.096;5.844;2023-04-16T10:34:03;19.95;;;10.23;;
49910;SDS011;35803;53.096;5.844;2023-04-16T10:36:29;18.92;;;9.90;;
49910;SDS011;35803;53.096;5.844;2023-04-16T10:38:58;21.70;;;9.35;;
49910;SDS011;35803;53.096;5.844;2023-04-16T10:41:25;21.88;;;11.07;;
49910;SDS011;35803;53.096;5.844;2023-04-16T10:43:51;24.85;;;10.00;;
49910;SDS011;35803;53.096;5.844;2023-04-16T10:46:21;23.67;;;9.70;;
49910;SDS011;35803;53.096;5.844;2023-04-16T10:48:48;18.05;;;9.55;;
49910;SDS011;35803;53.096;5.844;2023-04-16T10:51:24;22.05;;;10.57;;
49910;SDS011;35803;53.096;5.844;2023-04-16T10:56:33;22.38;;;10.40;;
49910;SDS011;35803;53.096;5.844;2023-04-16T10:59:00;23.88;;;10.48;;
49910;SDS011;35803;53.096;5.844;2023-04-16T11:01:32;25.50;;;11.02;;
49910;SDS011;35803;53.096;5.844;2023-04-16T11:03:59;24.58;;;9.98;;
49910;SDS011;35803;53.096;5.844;2023-04-16T11:06:26;23.33;;;10.57;;
49910;SDS011;35803;53.096;5.844;2023-04-16T11:08:52;25.52;;;10.07;;
49910;SDS011;35803;53.096;5.844;2023-04-16T11:11:18;19.77;;;10.23;;
49910;SDS011;35803;53.096;5.844;2023-04-16T11:13:44;18.90;;;9.48;;
49910;SDS011;35803;53.096;5.844;2023-04-16T11:16:14;24.10;;;10.20;;
49910;SDS011;35803;53.096;5.844;2023-04-16T11:18:40;22.65;;;10.93;;
49910;SDS011;35803;53.096;5.844;2023-04-16T11:21:09;19.73;;;10.65;;
49910;SDS011;35803;53.096;5.844;2023-04-16T11:23:49;19.48;;;10.65;;
49910;SDS011;35803;53.096;5.844;2023-04-16T11:26:23;24.55;;;10.77;;
49910;SDS011;35803;53.096;5.844;2023-04-16T11:28:50;22.75;;;10.90;;
49910;SDS011;35803;53.096;5.844;2023-04-16T11:31:16;18.23;;;10.07;;
49910;SDS011;35803;53.096;5.844;2023-04-16T11:33:41;23.15;;;9.73;;
49910;SDS011;35803;53.096;5.844;2023-04-16T11:36:07;24.17;;;11.02;;
49910;SDS011;35803;53.096;5.844;2023-04-16T11:38:34;21.40;;;10.73;;
49910;SDS011;35803;53.096;5.844;2023-04-16T11:41:01;19.55;;;9.48;;
49910;SDS011;35803;53.096;5.844;2023-04-16T11:43:26;21.02;;;10.85;;
49910;SDS011;35803;53.096;5.844;2023-04-16T11:45:58;19.67;;;9.52;;
49910;SDS011;35803;53.096;5.844;2023-04-16T11:48:33;20.15;;;9.82;;
49910;SDS011;35803;53.096;5.844;2023-04-16T11:51:13;23.27;;;11.02;;
49910;SDS011;35803;53.096;5.844;2023-04-16T11:53:45;18.52;;;9.93;;
49910;SDS011;35803;53.096;5.844;2023-04-16T11:56:12;18.63;;;9.48;;
49910;SDS011;35803;53.096;5.844;2023-04-16T11:58:38;16.77;;;9.40;;
49910;SDS011;35803;53.096;5.844;2023-04-16T12:01:03;21.88;;;10.65;;
49910;SDS011;35803;53.096;5.844;2023-04-16T12:03:41;23.15;;;10.40;;
49910;SDS011;35803;53.096;5.844;2023-04-16T12:06:10;18.55;;;10.20;;
49910;SDS011;35803;53.096;5.844;2023-04-16T12:08:36;22.83;;;10.77;;
49910;SDS011;35803;53.096;5.844;2023-04-16T12:11:01;17.77;;;9.43;;
49910;SDS011;35803;53.096;5.844;2023-04-16T12:13:27;18.02;;;9.90;;
49910;SDS011;35803;53.096;5.844;2023-04-16T12:15:54;20.63;;;10.10;;
49910;SDS011;35803;53.096;5.844;2023-04-16T12:18:24;18.95;;;10.15;;
49910;SDS011;35803;53.096;5.844;2023-04-16T12:20:51;20.77;;;10.18;;
49910;SDS011;35803;53.096;5.844;2023-04-16T12:23:26;25.35;;;10.52;;
49910;SDS011;35803;53.096;5.844;2023-04-16T12:25:53;22.27;;;10.52;;
49910;SDS011;35803;53.096;5.844;2023-04-16T12:28:26;20.27;;;10.18;;
49910;SDS011;35803;53.096;5.844;2023-04-16T12:30:55;19.67;;;10.90;;
49910;SDS011;35803;53.096;5.844;2023-04-16T12:33:21;20.17;;;10.13;;
49910;SDS011;35803;53.096;5.844;2023-04-16T12:35:47;21.27;;;10.25;;
49910;SDS011;35803;53.096;5.844;2023-04-16T12:38:12;15.35;;;9.55;;
49910;SDS011;35803;53.096;5.844;2023-04-16T12:40:39;19.50;;;10.07;;
49910;SDS011;35803;53.096;5.844;2023-04-16T12:43:06;22.48;;;10.52;;
49910;SDS011;35803;53.096;5.844;2023-04-16T12:45:32;21.15;;;10.18;;
49910;SDS011;35803;53.096;5.844;2023-04-16T12:47:58;19.75;;;10.20;;
49910;SDS011;35803;53.096;5.844;2023-04-16T12:50:23;20.15;;;9.57;;
49910;SDS011;35803;53.096;5.844;2023-04-16T12:52:49;15.70;;;9.27;;
49910;SDS011;35803;53.096;5.844;2023-04-16T12:55:14;24.77;;;10.32;;
49910;SDS011;35803;53.096;5.844;2023-04-16T12:57:40;16.05;;;9.80;;
49910;SDS011;35803;53.096;5.844;2023-04-16T13:00:06;20.90;;;10.05;;
49910;SDS011;35803;53.096;5.844;2023-04-16T13:02:34;17.75;;;10.25;;
49910;SDS011;35803;53.096;5.844;2023-04-16T13:05:00;18.58;;;10.35;;
49910;SDS011;35803;53.096;5.844;2023-04-16T13:07:26;17.75;;;10.63;;
49910;SDS011;35803;53.096;5.844;2023-04-16T13:09:52;17.45;;;10.27;;
49910;SDS011;35803;53.096;5.844;2023-04-16T13:12:17;18.65;;;10.18;;
49910;SDS011;35803;53.096;5.844;2023-04-16T13:14:43;21.98;;;10.18;;
49910;SDS011;35803;53.096;5.844;2023-04-16T13:17:09;17.92;;;10.55;;
49910;SDS011;35803;53.096;5.844;2023-04-16T13:19:35;18.88;;;10.70;;
49910;SDS011;35803;53.096;5.844;2023-04-16T13:22:00;16.60;;;9.85;;
49910;SDS011;35803;53.096;5.844;2023-04-16T13:24:26;16.67;;;10.25;;
49910;SDS011;35803;53.096;5.844;2023-04-16T13:26:51;21.52;;;11.20;;
49910;SDS011;35803;53.096;5.844;2023-04-16T13:29:18;15.10;;;10.18;;
49910;SDS011;35803;53.096;5.844;2023-04-16T13:31:45;18.55;;;10.07;;
49910;SDS011;35803;53.096;5.844;2023-04-16T13:34:10;21.02;;;10.77;;
49910;SDS011;35803;53.096;5.844;2023-04-16T13:36:36;19.25;;;10.20;;
49910;SDS011;35803;53.096;5.844;2023-04-16T13:39:01;19.75;;;10.30;;
49910;SDS011;35803;53.096;5.844;2023-04-16T13:41:29;21.08;;;10.85;;
49910;SDS011;35803;53.096;5.844;2023-04-16T13:43:55;22.30;;;10.88;;
49910;SDS011;35803;53.096;5.844;2023-04-16T13:46:21;21.92;;;11.65;;
49910;SDS011;35803;53.096;5.844;2023-04-16T13:48:47;21.48;;;11.15;;
49910;SDS011;35803;53.096;5.844;2023-04-16T13:51:12;23.80;;;10.60;;
49910;SDS011;35803;53.096;5.844;2023-04-16T13:53:42;17.77;;;10.38;;
49910;SDS011;35803;53.096;5.844;2023-04-16T13:56:08;19.60;;;11.02;;
49910;SDS011;35803;53.096;5.844;2023-04-16T13:58:34;19.27;;;10.45;;
49910;SDS011;35803;53.096;5.844;2023-04-16T14:01:00;20.60;;;11.10;;
49910;SDS011;35803;53.096;5.844;2023-04-16T14:03:25;19.10;;;10.95;;
49910;SDS011;35803;53.096;5.844;2023-04-16T14:05:51;21.15;;;11.35;;
49910;SDS011;35803;53.096;5.844;2023-04-16T14:08:17;22.45;;;10.32;;
49910;SDS011;35803;53.096;5.844;2023-04-16T14:10:46;20.33;;;11.18;;
49910;SDS011;35803;53.096;5.844;2023-04-16T14:13:11;19.52;;;10.75;;
49910;SDS011;35803;53.096;5.844;2023-04-16T14:15:37;18.85;;;11.15;;
49910;SDS011;35803;53.096;5.844;2023-04-16T14:18:03;17.52;;;9.98;;
49910;SDS011;35803;53.096;5.844;2023-04-16T14:20:28;18.75;;;10.57;;
49910;SDS011;35803;53.096;5.844;2023-04-16T14:22:57;19.42;;;10.30;;
49910;SDS011;35803;53.096;5.844;2023-04-16T14:25:23;21.30;;;10.82;;